CTH3 weather

Grandes-Bergeronnes Airport
Grandes-Bergeronnes, Quebec, Canada

Public forecast

Using degrees Celsius for public forecast. Weather courtesy of forecast.io.

Closest aviation weather report (METAR) to Grandes-Bergeronnes Airport

Closest report is Mont Joli Airport, 57.8 nm (107.0 km) ENE. Retrieved 2019/12/05 19:00 UTC (15 minutes ago):

CYYY 051900Z 26008KT 6SM -SN BKN010 OVC035 M02/M04 A2947 RMK SF6SC2 SLP985

Closest aviation forecast (TAF) to Grandes-Bergeronnes Airport

Forecast is more than 12 hours old.

Closest forecast is Charlevoix Airport, 46.9 nm (86.9 km) SW. Retrieved 2018/06/10 18:00 UTC (1 year ago):

TAF CYML 101730Z 1018/1106 12005KT P6SM FEW060 FM102100 14006KT P6SM SCT080 BECMG 1021/1023 VRB03KT RMK NXT FCST BY 110000Z